createdAt,value
2018-02-18T00:01:10.404Z,29.57
2018-02-18T00:03:37.976Z,32.43
2018-02-18T00:06:05.548Z,29.03
2018-02-18T00:08:33.182Z,36.03
2018-02-18T00:11:00.760Z,31.30
2018-02-18T00:13:28.316Z,28.80
2018-02-18T00:15:55.878Z,30.70
2018-02-18T00:18:23.452Z,31.13
2018-02-18T00:20:51.779Z,29.67
2018-02-18T00:23:19.442Z,31.90
2018-02-18T00:25:47.027Z,33.07
2018-02-18T00:28:14.575Z,30.50
2018-02-18T00:30:42.144Z,32.33
2018-02-18T00:33:09.815Z,33.77
2018-02-18T00:35:37.379Z,36.07
2018-02-18T00:38:05.050Z,32.33
2018-02-18T00:40:32.638Z,31.73
2018-02-18T00:43:01.055Z,30.40
2018-02-18T00:45:28.613Z,28.90
2018-02-18T00:47:56.177Z,32.90
2018-02-18T00:50:23.750Z,34.17
2018-02-18T00:52:51.318Z,29.30
2018-02-18T00:55:18.910Z,31.40
2018-02-18T00:57:47.251Z,29.53
2018-02-18T01:00:14.817Z,38.23
2018-02-18T01:02:42.405Z,33.97
2018-02-18T01:05:11.045Z,39.00
2018-02-18T01:07:38.628Z,39.30
2018-02-18T01:10:06.280Z,37.80
2018-02-18T01:12:33.850Z,36.57
2018-02-18T01:15:01.413Z,38.10
2018-02-18T01:17:29.002Z,40.93
2018-02-18T01:19:57.319Z,34.20
2018-02-18T01:22:24.977Z,39.17
2018-02-18T01:24:52.574Z,32.23
2018-02-18T01:27:20.167Z,35.37
2018-02-18T01:29:48.488Z,33.90
2018-02-18T01:32:16.054Z,34.27
2018-02-18T01:34:43.626Z,35.00
2018-02-18T01:37:11.202Z,38.70
2018-02-18T01:39:38.841Z,34.33
2018-02-18T01:42:06.398Z,26.03
2018-02-18T01:44:33.968Z,36.17
2018-02-18T01:47:01.560Z,42.07
2018-02-18T01:49:29.895Z,34.80
2018-02-18T01:51:57.455Z,34.77
2018-02-18T01:54:25.039Z,32.47
2018-02-18T01:56:53.398Z,28.83
2018-02-18T01:59:21.070Z,36.00
2018-02-18T02:01:48.658Z,36.10
2018-02-18T02:04:16.998Z,34.03
2018-02-18T02:06:44.644Z,38.00
2018-02-18T02:09:12.241Z,49.77
2018-02-18T02:11:39.800Z,33.93
2018-02-18T02:14:08.142Z,38.87
2018-02-18T02:16:35.726Z,39.43
2018-02-18T02:19:03.295Z,43.57
2018-02-18T02:21:30.846Z,41.00
2018-02-18T02:23:58.430Z,38.80
2018-02-18T02:26:26.065Z,39.07
2018-02-18T02:28:53.637Z,42.40
2018-02-18T02:31:21.201Z,37.87
2018-02-18T02:33:49.524Z,43.17
2018-02-18T02:36:17.149Z,42.83
2018-02-18T02:38:44.729Z,41.40
2018-02-18T02:41:13.060Z,37.77
2018-02-18T02:43:40.637Z,42.23
2018-02-18T02:46:08.218Z,45.17
2018-02-18T02:48:36.575Z,39.33
2018-02-18T02:51:04.147Z,40.43
2018-02-18T02:53:31.725Z,40.33
2018-02-18T02:56:00.063Z,38.57
2018-02-18T02:58:27.736Z,32.90
2018-02-18T03:00:55.396Z,45.50
2018-02-18T03:03:22.977Z,39.33
2018-02-18T03:05:51.323Z,42.37
2018-02-18T03:08:18.893Z,46.37
2018-02-18T03:10:46.457Z,44.03
2018-02-18T03:13:14.107Z,43.33
2018-02-18T03:15:41.684Z,37.97
2018-02-18T03:18:09.235Z,42.57
2018-02-18T03:20:36.795Z,42.17
2018-02-18T03:23:04.462Z,50.80
2018-02-18T03:25:32.021Z,38.97
2018-02-18T03:27:59.590Z,40.43
2018-02-18T03:30:28.057Z,46.40
2018-02-18T03:32:55.611Z,49.57
2018-02-18T03:35:23.176Z,52.03
2018-02-18T03:37:50.739Z,41.43
2018-02-18T03:40:18.404Z,42.53
2018-02-18T03:42:45.968Z,38.03
2018-02-18T03:45:13.621Z,44.83
2018-02-18T03:47:41.293Z,42.47
2018-02-18T03:50:08.852Z,49.97
2018-02-18T03:52:36.431Z,47.93
2018-02-18T03:55:04.061Z,44.80
2018-02-18T03:57:31.632Z,45.20
2018-02-18T03:59:59.210Z,38.37
2018-02-18T04:02:26.767Z,43.30
2018-02-18T04:04:54.332Z,43.30
2018-02-18T04:07:21.919Z,47.30
2018-02-18T04:09:49.479Z,45.87
2018-02-18T04:12:17.093Z,42.67
2018-02-18T04:14:44.678Z,41.83
2018-02-18T04:17:13.020Z,40.03
2018-02-18T04:19:43.065Z,44.97
2018-02-18T04:22:10.742Z,43.90
2018-02-18T04:24:38.293Z,45.00
2018-02-18T04:27:05.852Z,43.50
2018-02-18T04:29:33.492Z,41.90
2018-02-18T04:32:01.057Z,42.13
2018-02-18T04:34:28.612Z,47.60
2018-02-18T04:36:56.209Z,46.50
2018-02-18T04:39:24.518Z,48.57
2018-02-18T04:41:52.115Z,38.47
2018-02-18T04:44:19.694Z,46.57
2018-02-18T04:46:47.246Z,45.60
2018-02-18T04:49:14.830Z,44.73
2018-02-18T04:51:43.180Z,43.87
2018-02-18T04:54:10.734Z,45.20
2018-02-18T04:56:38.393Z,46.33
2018-02-18T04:59:06.079Z,41.97
2018-02-18T05:01:33.710Z,44.83
2018-02-18T05:04:01.272Z,42.00
2018-02-18T05:06:28.842Z,44.90
2018-02-18T05:08:56.418Z,42.37
2018-02-18T05:11:24.073Z,45.20
2018-02-18T05:13:52.518Z,48.83
2018-02-18T05:16:20.179Z,45.33
2018-02-18T05:18:47.755Z,39.03
2018-02-18T05:21:16.286Z,45.70
2018-02-18T05:23:44.615Z,40.43
2018-02-18T05:26:12.265Z,44.43
2018-02-18T05:28:39.854Z,46.33
2018-02-18T05:31:07.432Z,47.10
2018-02-18T05:33:36.502Z,42.17
2018-02-18T05:36:04.086Z,45.50
2018-02-18T05:38:31.657Z,43.83
2018-02-18T05:40:59.982Z,42.70
2018-02-18T05:43:27.678Z,50.23
2018-02-18T05:45:55.234Z,46.93
2018-02-18T05:48:22.893Z,42.10
2018-02-18T05:50:50.567Z,44.30
2018-02-18T05:53:18.219Z,44.83
2018-02-18T05:55:45.810Z,47.67
2018-02-18T05:58:14.259Z,41.73
2018-02-18T06:00:41.821Z,49.70
2018-02-18T06:03:09.477Z,41.07
2018-02-18T06:05:37.135Z,43.27
2018-02-18T06:08:04.696Z,43.67
2018-02-18T06:10:32.362Z,52.10
2018-02-18T06:12:59.972Z,51.13
2018-02-18T06:15:28.296Z,46.63
2018-02-18T06:17:55.855Z,40.70
2018-02-18T06:20:23.434Z,40.00
2018-02-18T06:22:51.030Z,41.20
2018-02-18T06:25:19.361Z,48.23
2018-02-18T06:27:46.955Z,48.27
2018-02-18T06:30:15.301Z,42.93
2018-02-18T06:32:42.970Z,44.17
2018-02-18T06:35:10.568Z,44.07
2018-02-18T06:37:38.892Z,42.43
2018-02-18T06:40:06.451Z,43.37
2018-02-18T06:42:34.041Z,44.10
2018-02-18T06:45:02.372Z,43.50
2018-02-18T06:47:30.004Z,39.80
2018-02-18T06:49:58.545Z,38.43
2018-02-18T06:52:26.213Z,41.63
2018-02-18T06:54:53.777Z,41.33
2018-02-18T06:57:21.348Z,37.90
2018-02-18T06:59:48.996Z,37.60
2018-02-18T07:02:16.565Z,39.20
2018-02-18T07:04:44.150Z,37.27
2018-02-18T07:07:12.479Z,39.87
2018-02-18T07:09:40.128Z,42.73
2018-02-18T07:12:07.723Z,38.03
2018-02-18T07:14:35.385Z,41.60
2018-02-18T07:17:02.943Z,39.83
2018-02-18T07:19:30.609Z,43.90
2018-02-18T07:21:58.165Z,39.33
2018-02-18T07:24:25.744Z,41.90
2018-02-18T07:26:54.097Z,43.97
2018-02-18T07:29:21.665Z,42.97
2018-02-18T07:31:49.323Z,37.40
2018-02-18T07:34:16.957Z,44.30
2018-02-18T07:36:44.545Z,47.37
2018-02-18T07:39:12.121Z,43.73
2018-02-18T07:41:39.692Z,48.80
2018-02-18T07:44:08.020Z,39.27
2018-02-18T07:46:35.677Z,46.30
2018-02-18T07:49:03.259Z,38.57
2018-02-18T07:51:30.924Z,40.53
2018-02-18T07:53:58.477Z,42.47
2018-02-18T07:56:26.051Z,39.10
2018-02-18T07:58:53.720Z,43.30
2018-02-18T08:01:21.276Z,42.60
2018-02-18T08:03:48.861Z,37.00
2018-02-18T08:06:17.226Z,37.40
2018-02-18T08:08:44.808Z,37.67
2018-02-18T08:11:13.151Z,39.03
2018-02-18T08:13:40.824Z,36.87
2018-02-18T08:16:08.403Z,42.30
2018-02-18T08:18:36.769Z,42.20
2018-02-18T08:21:04.419Z,42.87
2018-02-18T08:23:32.740Z,42.70
2018-02-18T08:26:00.328Z,41.43
2018-02-18T08:28:27.990Z,42.73
2018-02-18T08:30:55.558Z,41.53
2018-02-18T08:33:23.247Z,45.77
2018-02-18T08:35:51.725Z,43.53
2018-02-18T08:38:19.283Z,43.73
2018-02-18T08:40:46.835Z,47.50
2018-02-18T08:43:14.418Z,47.13
2018-02-18T08:45:41.986Z,56.73
2018-02-18T08:48:10.444Z,77.87
2018-02-18T08:50:38.005Z,85.47
2018-02-18T08:53:05.581Z,80.73
2018-02-18T08:55:33.165Z,80.40
2018-02-18T08:58:01.494Z,66.13
2018-02-18T09:00:29.055Z,147.70
2018-02-18T09:02:56.645Z,70.60
2018-02-18T09:05:24.973Z,86.07
2018-02-18T09:07:52.536Z,110.57
2018-02-18T09:10:20.216Z,121.03
2018-02-18T09:12:47.786Z,104.47
2018-02-18T09:15:15.354Z,68.17
2018-02-18T09:17:42.926Z,72.17
2018-02-18T09:20:10.988Z,63.45
2018-02-18T09:22:40.079Z,72.50
2018-02-18T09:25:07.724Z,78.00
2018-02-18T09:27:35.292Z,171.87
2018-02-18T09:30:02.846Z,72.97
2018-02-18T09:32:30.423Z,68.80
2018-02-18T09:34:57.987Z,78.67
2018-02-18T09:37:25.559Z,59.23
2018-02-18T09:39:53.905Z,71.07
2018-02-18T09:42:21.478Z,76.13
2018-02-18T09:44:49.042Z,60.70
2018-02-18T09:47:16.717Z,64.07
2018-02-18T09:49:44.279Z,58.00
2018-02-18T09:52:11.844Z,75.23
2018-02-18T09:54:40.177Z,78.90
2018-02-18T09:57:07.758Z,81.97
2018-02-18T09:59:35.322Z,63.60
2018-02-18T10:02:02.907Z,80.60
2018-02-18T10:04:31.239Z,76.43
2018-02-18T10:06:58.810Z,68.63
2018-02-18T10:09:26.386Z,66.23
2018-02-18T10:11:54.038Z,45.57
2018-02-18T10:14:21.651Z,56.23
2018-02-18T10:16:50.098Z,51.90
2018-02-18T10:19:17.646Z,56.67
2018-02-18T10:21:45.192Z,53.67
2018-02-18T10:24:12.777Z,54.27
2018-02-18T10:26:40.332Z,53.70
2018-02-18T10:29:08.779Z,54.17
2018-02-18T10:31:36.360Z,53.17
2018-02-18T10:34:03.940Z,56.10
2018-02-18T10:36:32.267Z,57.27
2018-02-18T10:38:59.864Z,52.57
2018-02-18T10:41:27.500Z,52.00
2018-02-18T10:46:37.701Z,43.93
2018-02-18T10:49:05.250Z,43.03
2018-02-18T10:51:33.302Z,51.77
2018-02-18T10:54:00.884Z,43.80
2018-02-18T10:56:28.450Z,44.87
2018-02-18T10:58:56.018Z,43.50
2018-02-18T11:01:23.596Z,48.60
2018-02-18T11:03:51.931Z,48.40
2018-02-18T11:06:19.493Z,51.30
2018-02-18T11:08:47.089Z,44.67
2018-02-18T11:11:14.651Z,46.03
2018-02-18T11:13:42.206Z,43.97
2018-02-18T11:16:09.771Z,42.50
2018-02-18T11:18:38.122Z,40.80
2018-02-18T11:21:05.674Z,44.03
2018-02-18T11:23:33.248Z,42.63
2018-02-18T11:26:00.830Z,24.37
2018-02-18T11:28:29.179Z,40.77
2018-02-18T11:30:56.761Z,37.90
2018-02-18T11:33:24.324Z,38.33
2018-02-18T11:35:51.894Z,38.30
2018-02-18T11:38:20.283Z,38.37
2018-02-18T11:40:48.605Z,42.93
2018-02-18T11:43:16.176Z,42.27
2018-02-18T11:45:43.752Z,44.03
2018-02-18T11:48:12.069Z,41.37
2018-02-18T11:50:40.391Z,38.27
2018-02-18T11:53:08.069Z,48.60
2018-02-18T11:55:35.743Z,36.40
2018-02-18T11:58:03.299Z,36.30
2018-02-18T12:00:30.872Z,40.63
2018-02-18T12:02:59.194Z,35.63
2018-02-18T12:05:26.858Z,33.57
2018-02-18T12:07:54.450Z,31.80
2018-02-18T12:10:22.012Z,33.70
2018-02-18T12:12:49.564Z,31.63
2018-02-18T12:15:17.135Z,32.23
2018-02-18T12:17:44.798Z,32.60
2018-02-18T12:20:12.369Z,29.57
2018-02-18T12:22:40.030Z,27.23
2018-02-18T12:25:08.904Z,16.87
2018-02-18T12:27:36.477Z,33.70
2018-02-18T12:30:04.069Z,29.30
2018-02-18T12:32:31.631Z,30.47
2018-02-18T12:34:59.950Z,31.03
2018-02-18T12:37:27.520Z,26.70
2018-02-18T12:39:55.189Z,24.30
2018-02-18T12:42:22.761Z,26.03
2018-02-18T12:44:50.344Z,22.17
2018-02-18T12:47:18.717Z,25.60
2018-02-18T12:49:46.351Z,26.33
2018-02-18T12:52:13.921Z,23.63
2018-02-18T12:54:41.533Z,23.23
2018-02-18T12:57:09.102Z,23.03
2018-02-18T12:59:36.712Z,22.10
2018-02-18T13:02:04.273Z,24.80
2018-02-18T13:04:31.829Z,20.23
2018-02-18T13:06:59.417Z,21.13
2018-02-18T13:09:27.849Z,22.60
2018-02-18T13:11:55.416Z,23.23
2018-02-18T13:14:23.010Z,19.70
2018-02-18T13:16:51.349Z,19.07
2018-02-18T13:19:18.926Z,16.30
2018-02-18T13:21:46.492Z,13.63
2018-02-18T13:24:14.053Z,18.53
2018-02-18T13:26:41.602Z,18.30
2018-02-18T13:29:09.178Z,25.43
2018-02-18T13:31:37.511Z,23.17
2018-02-18T13:34:05.234Z,19.63
2018-02-18T13:36:33.681Z,18.07
2018-02-18T13:39:01.248Z,20.90
2018-02-18T13:41:28.899Z,16.77
2018-02-18T13:43:56.466Z,18.93
2018-02-18T13:46:24.020Z,20.37
2018-02-18T13:48:51.705Z,17.83
2018-02-18T13:51:20.135Z,18.53
2018-02-18T13:53:47.798Z,18.10
2018-02-18T13:56:15.472Z,17.17
2018-02-18T13:58:43.039Z,18.50
2018-02-18T14:01:10.711Z,18.07
2018-02-18T14:03:38.284Z,16.30
2018-02-18T14:06:05.928Z,16.03
2018-02-18T14:08:33.516Z,13.30
2018-02-18T14:11:01.075Z,12.10
2018-02-18T14:13:29.436Z,15.07
2018-02-18T14:15:57.005Z,13.40
2018-02-18T14:18:24.551Z,11.67
2018-02-18T14:20:52.153Z,14.40
2018-02-18T14:23:20.472Z,17.17
2018-02-18T14:25:48.048Z,13.90
2018-02-18T14:28:15.615Z,17.93
2018-02-18T14:30:43.174Z,16.20
2018-02-18T14:33:12.690Z,16.77
2018-02-18T14:35:40.265Z,12.93
2018-02-18T14:38:08.992Z,14.00
2018-02-18T14:40:36.564Z,16.47
2018-02-18T14:43:15.802Z,15.73
2018-02-18T14:45:55.203Z,17.13
2018-02-18T14:48:34.624Z,16.10
2018-02-18T14:51:14.762Z,17.70
2018-02-18T14:53:55.024Z,13.80
2018-02-18T14:56:34.677Z,15.17
2018-02-18T14:59:03.028Z,10.37
2018-02-18T15:01:30.595Z,12.33
2018-02-18T15:03:58.267Z,13.13
2018-02-18T15:06:25.850Z,14.13
2018-02-18T15:08:54.189Z,16.87
2018-02-18T15:11:21.769Z,13.53
2018-02-18T15:13:49.349Z,13.40
2018-02-18T15:16:17.681Z,14.97
2018-02-18T15:18:45.256Z,12.90
2018-02-18T15:21:12.844Z,15.20
2018-02-18T15:23:41.166Z,9.53
2018-02-18T15:26:08.827Z,14.00
2018-02-18T15:28:36.510Z,13.03
2018-02-18T15:31:04.065Z,13.40
2018-02-18T15:33:31.624Z,15.37
2018-02-18T15:35:59.269Z,13.10
2018-02-18T15:38:26.860Z,13.37
2018-02-18T15:40:54.426Z,12.97
2018-02-18T15:43:21.990Z,12.87
2018-02-18T15:45:49.547Z,13.00
2018-02-18T15:48:17.114Z,16.23
2018-02-18T15:50:44.692Z,14.97
2018-02-18T15:53:13.029Z,17.43
2018-02-18T15:55:40.591Z,15.20
2018-02-18T15:58:08.182Z,14.87
2018-02-18T16:00:36.509Z,17.90
2018-02-18T16:03:04.091Z,13.83
2018-02-18T16:05:32.534Z,16.17
2018-02-18T16:08:00.108Z,15.13
2018-02-18T16:10:27.771Z,15.67
2018-02-18T16:12:55.353Z,13.70
2018-02-18T16:15:22.936Z,15.47
2018-02-18T16:17:50.492Z,14.97
2018-02-18T16:20:18.073Z,13.90
2018-02-18T16:22:46.433Z,15.50
2018-02-18T16:25:13.982Z,21.90
2018-02-18T16:27:41.569Z,16.27
2018-02-18T16:30:10.914Z,19.43
2018-02-18T16:32:38.579Z,20.27
2018-02-18T16:35:06.909Z,18.37
2018-02-18T16:37:35.271Z,22.07
2018-02-18T16:40:02.848Z,19.57
2018-02-18T16:42:31.191Z,20.10
2018-02-18T16:44:58.847Z,18.90
2018-02-18T16:47:26.412Z,17.43
2018-02-18T16:49:53.986Z,15.57
2018-02-18T16:52:21.646Z,17.07
2018-02-18T16:54:49.238Z,18.13
2018-02-18T16:57:17.563Z,19.87
2018-02-18T16:59:45.138Z,20.60
2018-02-18T17:02:12.701Z,20.47
2018-02-18T17:04:40.264Z,21.57
2018-02-18T17:07:07.827Z,22.77
2018-02-18T17:09:35.387Z,18.97
2018-02-18T17:12:02.968Z,19.87
2018-02-18T17:14:31.324Z,21.37
2018-02-18T17:16:58.882Z,20.57
2018-02-18T17:19:26.445Z,19.30
2018-02-18T17:21:54.005Z,19.77
2018-02-18T17:24:21.564Z,20.60
2018-02-18T17:26:49.213Z,20.57
2018-02-18T17:29:16.771Z,20.57
2018-02-18T17:31:44.381Z,21.70
2018-02-18T17:34:12.717Z,24.13
2018-02-18T17:36:40.303Z,21.10
2018-02-18T17:39:07.943Z,18.60
2018-02-18T17:41:35.519Z,20.37
2018-02-18T17:44:03.178Z,20.80
2018-02-18T17:46:30.757Z,18.20
2018-02-18T17:48:59.201Z,21.23
2018-02-18T17:51:26.763Z,23.30
2018-02-18T17:53:54.318Z,19.13
2018-02-18T17:56:21.903Z,19.43
2018-02-18T17:58:49.453Z,19.00
2018-02-18T18:01:17.012Z,22.43
2018-02-18T18:03:44.602Z,18.47
2018-02-18T18:06:12.934Z,19.83
2018-02-18T18:08:40.540Z,19.83
2018-02-18T18:11:09.113Z,20.73
2018-02-18T18:13:36.670Z,14.57
2018-02-18T18:16:04.229Z,20.63
2018-02-18T18:18:31.808Z,19.67
2018-02-18T18:21:00.150Z,18.80
2018-02-18T18:23:27.708Z,21.97
2018-02-18T18:25:55.272Z,19.63
2018-02-18T18:28:22.973Z,19.00
2018-02-18T18:30:51.328Z,26.43
2018-02-18T18:33:18.977Z,23.73
2018-02-18T18:35:46.540Z,28.00
2018-02-18T18:38:14.136Z,27.37
2018-02-18T18:40:42.481Z,23.37
2018-02-18T18:43:10.471Z,25.23
2018-02-18T18:45:38.820Z,30.53
2018-02-18T18:48:06.393Z,25.03
2018-02-18T18:50:34.052Z,23.57
2018-02-18T18:53:01.629Z,26.00
2018-02-18T18:55:29.186Z,27.07
2018-02-18T18:57:56.980Z,26.70
2018-02-18T19:00:25.308Z,25.20
2018-02-18T19:02:52.883Z,24.50
2018-02-18T19:05:20.459Z,25.30
2018-02-18T19:07:48.159Z,28.67
2018-02-18T19:10:15.731Z,29.50
2018-02-18T19:12:43.400Z,27.63
2018-02-18T19:15:10.986Z,27.83
2018-02-18T19:17:38.585Z,33.33
2018-02-18T19:20:06.943Z,29.97
2018-02-18T19:22:34.498Z,30.87
2018-02-18T19:25:02.076Z,30.73
2018-02-18T19:27:30.414Z,29.63
2018-02-18T19:29:58.090Z,32.57
2018-02-18T19:32:25.665Z,30.33
2018-02-18T19:34:53.295Z,31.83
2018-02-18T19:37:21.052Z,30.53
2018-02-18T19:39:48.666Z,31.33
2018-02-18T19:42:17.022Z,35.83
2018-02-18T19:44:44.584Z,36.17
2018-02-18T19:47:13.022Z,37.17
2018-02-18T19:49:40.610Z,34.63
2018-02-18T19:52:08.208Z,31.50
2018-02-18T19:54:36.550Z,31.00
2018-02-18T19:57:04.214Z,28.50
2018-02-18T19:59:31.796Z,32.43
2018-02-18T20:01:59.614Z,33.80
2018-02-18T20:04:27.168Z,34.47
2018-02-18T20:06:54.742Z,35.70
2018-02-18T20:09:22.337Z,30.50
2018-02-18T20:11:49.961Z,33.53
2018-02-18T20:14:17.547Z,35.90
2018-02-18T20:16:45.115Z,35.10
2018-02-18T20:19:12.680Z,34.10
2018-02-18T20:21:41.059Z,32.73
2018-02-18T20:24:08.620Z,32.93
2018-02-18T20:26:36.188Z,33.70
2018-02-18T20:29:04.755Z,32.17
2018-02-18T20:31:32.325Z,35.67
2018-02-18T20:33:59.889Z,29.13
2018-02-18T20:36:28.242Z,31.63
2018-02-18T20:38:55.803Z,34.93
2018-02-18T20:41:24.160Z,33.70
2018-02-18T20:43:51.869Z,37.37
2018-02-18T20:46:20.610Z,35.43
2018-02-18T20:48:48.987Z,37.40
2018-02-18T20:51:16.580Z,35.10
2018-02-18T20:53:44.158Z,37.07
2018-02-18T20:56:11.735Z,46.40
2018-02-18T20:58:40.084Z,41.20
2018-02-18T21:01:07.654Z,35.87
2018-02-18T21:03:35.234Z,38.17
2018-02-18T21:06:03.621Z,35.50
2018-02-18T21:08:31.946Z,31.57
2018-02-18T21:10:59.514Z,33.83
2018-02-18T21:13:27.097Z,33.30
2018-02-18T21:15:54.661Z,30.77
2018-02-18T21:18:22.992Z,29.60
2018-02-18T21:20:50.551Z,33.93
2018-02-18T21:23:18.108Z,40.93
2018-02-18T21:25:45.680Z,34.17
2018-02-18T21:28:13.273Z,39.30
2018-02-18T21:30:40.842Z,35.00
2018-02-18T21:33:09.194Z,34.07
2018-02-18T21:35:36.760Z,37.03
2018-02-18T21:38:04.334Z,35.70
2018-02-18T21:40:31.913Z,33.10
2018-02-18T21:43:00.262Z,32.73
2018-02-18T21:45:27.843Z,30.33
2018-02-18T21:47:56.178Z,32.27
2018-02-18T21:50:23.751Z,31.03
2018-02-18T21:52:51.309Z,31.67
2018-02-18T21:55:18.880Z,30.03
2018-02-18T21:57:46.450Z,30.97
2018-02-18T22:00:14.003Z,29.07
2018-02-18T22:02:42.328Z,32.93
2018-02-18T22:05:10.758Z,34.03
2018-02-18T22:07:38.333Z,34.10
2018-02-18T22:10:06.686Z,31.73
2018-02-18T22:12:34.272Z,32.87
2018-02-18T22:15:02.396Z,35.47
2018-02-18T22:17:30.057Z,31.97
2018-02-18T22:19:57.725Z,30.77
2018-02-18T22:22:25.300Z,33.10
2018-02-18T22:24:52.854Z,34.80
2018-02-18T22:27:20.422Z,33.50
2018-02-18T22:29:47.982Z,33.57
2018-02-18T22:32:15.553Z,31.17
2018-02-18T22:34:43.121Z,28.87
2018-02-18T22:37:10.779Z,30.30
2018-02-18T22:39:38.336Z,35.77
2018-02-18T22:42:06.758Z,35.43
2018-02-18T22:44:34.311Z,32.93
2018-02-18T22:47:02.639Z,33.73
2018-02-18T22:49:30.210Z,32.57
2018-02-18T22:51:57.779Z,38.67
2018-02-18T22:54:25.332Z,34.70
2018-02-18T22:56:52.904Z,35.67
2018-02-18T22:59:21.971Z,35.67
2018-02-18T23:01:49.543Z,38.10
2018-02-18T23:04:17.137Z,37.80
2018-02-18T23:06:45.529Z,33.80
2018-02-18T23:09:13.883Z,36.37
2018-02-18T23:11:42.254Z,38.87
2018-02-18T23:14:10.223Z,34.80
2018-02-18T23:16:38.558Z,38.97
2018-02-18T23:19:06.127Z,39.23
2018-02-18T23:21:33.694Z,39.37
2018-02-18T23:24:01.348Z,37.50
2018-02-18T23:26:28.934Z,40.47
2018-02-18T23:28:56.592Z,36.90
2018-02-18T23:31:24.273Z,42.87
2018-02-18T23:33:51.857Z,38.87
2018-02-18T23:36:20.178Z,39.87
2018-02-18T23:38:47.831Z,39.43
2018-02-18T23:41:15.408Z,38.67
2018-02-18T23:43:42.958Z,37.07
2018-02-18T23:46:10.519Z,37.03
2018-02-18T23:48:38.208Z,39.70
2018-02-18T23:51:05.773Z,41.53
2018-02-18T23:53:33.430Z,37.10
2018-02-18T23:56:00.991Z,43.53
2018-02-18T23:58:28.558Z,39.37
